createdAt,value
2024-03-02T00:01:55.427Z,85.51
2024-03-02T00:04:23.585Z,85.27
2024-03-02T00:06:55.951Z,85.72
2024-03-02T00:09:24.479Z,85.63
2024-03-02T00:11:53.107Z,85.89
2024-03-02T00:14:21.655Z,85.33
2024-03-02T00:16:49.839Z,85.72
2024-03-02T00:19:19.648Z,85.60
2024-03-02T00:21:48.842Z,86.40
2024-03-02T00:24:28.965Z,86.76
2024-03-02T00:26:57.089Z,86.42
2024-03-02T00:29:25.784Z,86.12
2024-03-02T00:31:54.583Z,86.50
2024-03-02T00:34:24.790Z,86.79
2024-03-02T00:36:53.088Z,86.70
2024-03-02T00:39:21.520Z,87.04
2024-03-02T00:41:49.665Z,86.93
2024-03-02T00:44:22.089Z,87.13
2024-03-02T00:46:50.233Z,87.13
2024-03-02T00:49:24.873Z,87.53
2024-03-02T00:51:55.563Z,86.95
2024-03-02T00:54:25.830Z,87.01
2024-03-02T00:56:56.180Z,87.02
2024-03-02T00:59:25.336Z,87.28
2024-03-02T01:01:55.090Z,87.39
2024-03-02T01:04:24.614Z,87.22
2024-03-02T01:06:53.082Z,87.12
2024-03-02T01:09:21.621Z,87.06
2024-03-02T01:11:49.878Z,87.03
2024-03-02T01:14:18.193Z,87.04
2024-03-02T01:16:46.411Z,86.83
2024-03-02T01:19:14.746Z,86.92
2024-03-02T01:21:44.484Z,86.96
2024-03-02T01:24:14.327Z,86.56
2024-03-02T01:26:42.499Z,87.27
2024-03-02T01:29:10.671Z,87.52
2024-03-02T01:31:38.780Z,87.41
2024-03-02T01:34:06.965Z,87.70
2024-03-02T01:36:35.233Z,88.28
2024-03-02T01:39:05.162Z,87.38
2024-03-02T01:41:33.240Z,87.88
2024-03-02T01:44:01.401Z,87.98
2024-03-02T01:46:29.884Z,88.15
2024-03-02T01:48:58.060Z,88.48
2024-03-02T01:51:26.214Z,88.30
2024-03-02T01:53:54.489Z,88.61
2024-03-02T01:56:24.099Z,88.26
2024-03-02T01:58:52.343Z,88.30
2024-03-02T02:01:20.552Z,88.11
2024-03-02T02:03:48.732Z,88.65
2024-03-02T02:06:17.006Z,87.78
2024-03-02T02:08:46.309Z,88.72
2024-03-02T02:11:17.714Z,88.46
2024-03-02T02:13:47.269Z,88.08
2024-03-02T02:16:15.457Z,88.14
2024-03-02T02:18:43.676Z,88.14
2024-03-02T02:21:11.859Z,87.87
2024-03-02T02:23:43.419Z,88.45
2024-03-02T02:26:11.496Z,88.49
2024-03-02T02:28:39.845Z,88.05
2024-03-02T02:31:08.734Z,87.96
2024-03-02T02:33:41.314Z,87.81
2024-03-02T02:36:11.169Z,88.36
2024-03-02T02:38:47.814Z,87.67
2024-03-02T02:41:15.907Z,88.32
2024-03-02T02:43:44.220Z,88.26
2024-03-02T02:46:11.403Z,88.27
2024-03-02T02:48:39.569Z,88.27
2024-03-02T02:51:07.711Z,88.55
2024-03-02T02:53:36.589Z,88.01
2024-03-02T02:56:06.755Z,88.05
2024-03-02T02:58:35.117Z,88.34
2024-03-02T03:01:03.284Z,87.92
2024-03-02T03:03:31.554Z,88.30
2024-03-02T03:05:59.700Z,88.28
2024-03-02T03:08:27.808Z,88.11
2024-03-02T03:10:56.020Z,88.40
2024-03-02T03:13:27.622Z,88.08
2024-03-02T03:15:55.884Z,88.31
2024-03-02T03:18:24.014Z,88.27
2024-03-02T03:20:52.152Z,88.46
2024-03-02T03:23:20.222Z,88.72
2024-03-02T03:25:48.389Z,88.84
2024-03-02T03:28:15.586Z,88.33
2024-03-02T03:30:45.199Z,88.75
2024-03-02T03:33:13.309Z,88.59
2024-03-02T03:35:41.380Z,88.21
2024-03-02T03:38:09.532Z,88.49
2024-03-02T03:40:38.126Z,88.51
2024-03-02T03:43:06.444Z,88.46
2024-03-02T03:45:35.225Z,88.42
2024-03-02T03:48:05.153Z,88.05
2024-03-02T03:50:33.265Z,88.42
2024-03-02T03:53:01.330Z,88.70
2024-03-02T03:55:29.610Z,88.36
2024-03-02T03:57:58.052Z,88.48
2024-03-02T04:00:26.471Z,88.79
2024-03-02T04:02:54.590Z,89.16
2024-03-02T04:05:24.003Z,89.14
2024-03-02T04:07:52.137Z,89.15
2024-03-02T04:10:21.917Z,88.68
2024-03-02T04:12:52.500Z,89.14
2024-03-02T04:15:20.907Z,88.79
2024-03-02T04:17:49.044Z,89.14
2024-03-02T04:20:17.198Z,89.01
2024-03-02T04:22:46.632Z,88.96
2024-03-02T04:25:15.036Z,88.75
2024-03-02T04:27:43.949Z,89.66
2024-03-02T04:30:13.478Z,89.71
2024-03-02T04:32:41.649Z,89.58
2024-03-02T04:35:11.119Z,89.48
2024-03-02T04:37:39.718Z,89.69
2024-03-02T04:40:11.399Z,89.42
2024-03-02T04:42:39.587Z,89.82
2024-03-02T04:45:09.267Z,89.58
2024-03-02T04:47:37.362Z,90.07
2024-03-02T04:50:08.813Z,89.88
2024-03-02T04:52:36.998Z,89.95
2024-03-02T04:55:20.797Z,89.88
2024-03-02T04:57:52.058Z,90.08
2024-03-02T05:00:20.744Z,89.66
2024-03-02T05:02:48.922Z,89.90
2024-03-02T05:05:17.031Z,89.85
2024-03-02T05:07:45.481Z,89.59
2024-03-02T05:10:13.727Z,89.75
2024-03-02T05:12:57.786Z,89.34
2024-03-02T05:15:27.845Z,89.81
2024-03-02T05:17:58.094Z,89.47
2024-03-02T05:20:26.413Z,89.67
2024-03-02T05:22:54.528Z,89.42
2024-03-02T05:25:22.622Z,89.69
2024-03-02T05:27:50.807Z,89.68
2024-03-02T05:30:19.191Z,89.60
2024-03-02T05:32:48.653Z,90.11
2024-03-02T05:35:16.827Z,90.46
2024-03-02T05:37:44.916Z,90.18
2024-03-02T05:40:14.140Z,90.31
2024-03-02T05:42:42.656Z,90.43
2024-03-02T05:45:11.402Z,90.67
2024-03-02T05:47:39.737Z,91.21
2024-03-02T05:50:10.240Z,90.75
2024-03-02T05:52:38.379Z,91.13
2024-03-02T05:55:07.405Z,90.74
2024-03-02T05:57:48.668Z,91.75
2024-03-02T06:00:18.944Z,91.77
2024-03-02T06:02:47.569Z,91.59
2024-03-02T06:05:17.902Z,92.04
2024-03-02T06:07:48.554Z,91.98
2024-03-02T06:10:16.831Z,92.06
2024-03-02T06:12:45.238Z,92.29
2024-03-02T06:15:13.369Z,92.40
2024-03-02T06:17:41.511Z,92.97
2024-03-02T06:20:11.724Z,93.07
2024-03-02T06:22:41.179Z,92.67
2024-03-02T06:25:10.121Z,93.00
2024-03-02T06:27:38.320Z,93.01
2024-03-02T06:30:07.862Z,93.56
2024-03-02T06:32:36.081Z,93.62
2024-03-02T06:35:05.894Z,93.49
2024-03-02T06:37:34.043Z,93.75
2024-03-02T06:40:03.759Z,93.33
2024-03-02T06:42:34.462Z,93.65
2024-03-02T06:45:03.308Z,93.74
2024-03-02T06:47:31.543Z,93.89
2024-03-02T06:50:00.340Z,94.06
2024-03-02T06:52:28.465Z,93.72
2024-03-02T06:54:56.575Z,94.11
2024-03-02T06:57:26.226Z,94.57
2024-03-02T06:59:56.012Z,94.08
2024-03-02T07:02:24.182Z,94.10
2024-03-02T07:04:52.476Z,94.15
2024-03-02T07:07:20.636Z,94.32
2024-03-02T07:09:49.312Z,94.75
2024-03-02T07:12:17.591Z,94.59
2024-03-02T07:15:08.969Z,94.62
2024-03-02T07:17:38.209Z,94.86
2024-03-02T07:20:08.003Z,94.53
2024-03-02T07:22:36.115Z,94.79
2024-03-02T07:25:04.791Z,94.75
2024-03-02T07:27:34.776Z,94.68
2024-03-02T07:30:04.535Z,94.59
2024-03-02T07:32:32.648Z,95.11
2024-03-02T07:35:02.351Z,94.99
2024-03-02T07:37:30.541Z,95.24
2024-03-02T07:39:59.274Z,95.00
2024-03-02T07:42:27.509Z,95.00
2024-03-02T07:44:55.601Z,95.40
2024-03-02T07:47:25.083Z,95.30
2024-03-02T07:49:53.209Z,94.92
2024-03-02T07:52:21.345Z,95.17
2024-03-02T07:54:49.494Z,95.48
2024-03-02T07:57:17.668Z,95.38
2024-03-02T07:59:45.869Z,95.22
2024-03-02T08:02:14.581Z,95.19
2024-03-02T08:04:44.444Z,95.44
2024-03-02T08:07:12.607Z,95.83
2024-03-02T08:09:40.744Z,95.32
2024-03-02T08:12:09.751Z,94.98
2024-03-02T08:14:37.890Z,94.99
2024-03-02T08:17:10.523Z,94.70
2024-03-02T08:19:39.854Z,94.65
2024-03-02T08:22:09.546Z,94.44
2024-03-02T08:24:38.593Z,94.71
2024-03-02T08:27:07.013Z,93.92
2024-03-02T08:29:35.196Z,94.17
2024-03-02T08:32:03.636Z,93.49
2024-03-02T08:34:31.730Z,93.28
2024-03-02T08:36:59.961Z,93.31
2024-03-02T08:39:29.731Z,91.68
2024-03-02T08:41:57.994Z,91.62
2024-03-02T08:44:26.378Z,91.40
2024-03-02T08:46:54.537Z,90.79
2024-03-02T08:49:22.893Z,90.38
2024-03-02T08:51:55.784Z,89.63
2024-03-02T08:54:24.438Z,89.09
2024-03-02T08:56:54.057Z,87.93
2024-03-02T08:59:22.255Z,87.85
2024-03-02T09:01:50.513Z,87.10
2024-03-02T09:04:18.859Z,87.31
2024-03-02T09:06:47.000Z,87.16
2024-03-02T09:09:15.184Z,86.45
2024-03-02T09:11:43.437Z,86.71
2024-03-02T09:14:12.944Z,86.45
2024-03-02T09:16:41.059Z,85.24
2024-03-02T09:19:08.604Z,85.11
2024-03-02T09:21:36.730Z,84.34
2024-03-02T09:24:05.357Z,84.03
2024-03-02T09:26:33.675Z,84.45
2024-03-02T09:29:01.940Z,81.70
2024-03-02T09:31:31.578Z,82.85
2024-03-02T09:33:59.735Z,80.66
2024-03-02T09:36:27.938Z,80.73
2024-03-02T09:38:56.070Z,79.14
2024-03-02T09:41:24.458Z,79.75
2024-03-02T09:43:53.244Z,78.89
2024-03-02T09:46:22.209Z,78.77
2024-03-02T09:48:52.112Z,78.44
2024-03-02T09:51:21.852Z,79.07
2024-03-02T09:53:51.141Z,78.68
2024-03-02T09:56:20.052Z,79.45
2024-03-02T09:58:48.222Z,79.57
2024-03-02T10:01:16.398Z,78.89
2024-03-02T10:03:51.222Z,79.06
2024-03-02T10:06:26.260Z,78.80
2024-03-02T10:08:55.943Z,78.25
2024-03-02T10:11:30.424Z,78.29
2024-03-02T10:14:10.197Z,78.03
2024-03-02T10:16:39.732Z,79.14
2024-03-02T10:19:23.011Z,77.06
2024-03-02T10:21:54.346Z,77.08
2024-03-02T10:24:24.414Z,77.94
2024-03-02T10:26:53.513Z,76.88
2024-03-02T10:29:21.767Z,75.68
2024-03-02T10:31:49.958Z,76.81
2024-03-02T10:34:18.285Z,74.77
2024-03-02T10:36:47.443Z,75.29
2024-03-02T10:39:17.147Z,76.65
2024-03-02T10:41:49.480Z,75.38
2024-03-02T10:44:18.999Z,75.92
2024-03-02T10:46:51.607Z,74.70
2024-03-02T10:49:21.229Z,75.10
2024-03-02T10:51:49.401Z,75.75
2024-03-02T10:54:26.975Z,76.34
2024-03-02T10:56:58.311Z,74.66
2024-03-02T10:59:31.733Z,74.13
2024-03-02T11:02:05.393Z,75.38
2024-03-02T11:04:36.024Z,75.10
2024-03-02T11:07:08.594Z,76.01
2024-03-02T11:09:43.925Z,73.05
2024-03-02T11:12:21.376Z,71.87
2024-03-02T11:14:49.558Z,72.27
2024-03-02T11:17:19.067Z,73.08
2024-03-02T11:19:49.967Z,72.23
2024-03-02T11:22:19.284Z,71.74
2024-03-02T11:24:53.909Z,71.24
2024-03-02T11:28:04.819Z,69.16
2024-03-02T11:30:55.409Z,70.31
2024-03-02T11:33:30.712Z,69.35
2024-03-02T11:36:02.641Z,68.90
2024-03-02T11:38:33.405Z,69.13
2024-03-02T11:41:05.092Z,70.42
2024-03-02T11:43:34.239Z,69.00
2024-03-02T11:46:05.700Z,69.80
2024-03-02T11:48:35.048Z,68.69
2024-03-02T11:51:03.496Z,67.37
2024-03-02T11:53:35.960Z,68.00
2024-03-02T11:56:10.441Z,67.85
2024-03-02T11:58:42.370Z,68.68
2024-03-02T12:01:10.832Z,68.00
2024-03-02T12:03:40.262Z,67.35
2024-03-02T12:06:09.261Z,67.63
2024-03-02T12:08:38.499Z,67.53
2024-03-02T12:11:08.635Z,67.83
2024-03-02T12:13:36.821Z,66.18
2024-03-02T12:16:06.199Z,66.99
2024-03-02T12:18:34.508Z,67.98
2024-03-02T12:21:04.105Z,66.32
2024-03-02T12:23:32.337Z,67.53
2024-03-02T12:26:00.804Z,67.92
2024-03-02T12:28:32.398Z,66.99
2024-03-02T12:31:01.146Z,66.39
2024-03-02T12:33:30.594Z,66.72
2024-03-02T12:35:59.598Z,66.64
2024-03-02T12:38:28.443Z,65.53
2024-03-02T12:40:56.599Z,65.24
2024-03-02T12:43:25.067Z,64.50
2024-03-02T12:45:57.154Z,64.24
2024-03-02T12:48:25.559Z,62.64
2024-03-02T12:50:54.180Z,62.50
2024-03-02T12:53:24.166Z,63.30
2024-03-02T12:55:52.585Z,61.00
2024-03-02T12:58:23.072Z,61.02
2024-03-02T13:00:51.642Z,61.15
2024-03-02T13:03:23.820Z,59.20
2024-03-02T13:05:52.506Z,58.06
2024-03-02T13:08:20.980Z,60.04
2024-03-02T13:10:49.405Z,58.47
2024-03-02T13:13:17.594Z,57.14
2024-03-02T13:15:46.228Z,56.22
2024-03-02T13:18:14.780Z,56.38
2024-03-02T13:20:44.522Z,55.95
2024-03-02T13:23:12.626Z,56.15
2024-03-02T13:25:40.729Z,54.95
2024-03-02T13:28:09.771Z,55.69
2024-03-02T13:30:38.140Z,55.66
2024-03-02T13:33:06.945Z,55.35
2024-03-02T13:35:35.187Z,55.70
2024-03-02T13:38:04.969Z,55.27
2024-03-02T13:40:36.537Z,55.48
2024-03-02T13:43:05.608Z,56.36
2024-03-02T13:45:33.798Z,56.53
2024-03-02T13:48:04.538Z,55.17
2024-03-02T13:50:32.780Z,54.82
2024-03-02T13:53:01.051Z,54.37
2024-03-02T13:55:30.537Z,54.01
2024-03-02T13:57:59.233Z,53.89
2024-03-02T14:00:27.691Z,54.97
2024-03-02T14:02:55.865Z,53.87
2024-03-02T14:05:24.186Z,52.73
2024-03-02T14:07:52.293Z,52.97
2024-03-02T14:10:23.420Z,53.59
2024-03-02T14:12:53.094Z,52.36
2024-03-02T14:15:22.005Z,50.22
2024-03-02T14:17:50.937Z,53.78
2024-03-02T14:20:22.987Z,53.48
2024-03-02T14:22:51.585Z,51.15
2024-03-02T14:25:20.176Z,50.49
2024-03-02T14:28:07.858Z,51.19
2024-03-02T14:30:38.395Z,51.39
2024-03-02T14:33:07.260Z,50.73
2024-03-02T14:35:35.719Z,50.39
2024-03-02T14:38:04.491Z,51.63
2024-03-02T14:40:32.636Z,50.03
2024-03-02T14:43:00.963Z,51.13
2024-03-02T14:45:29.195Z,50.06
2024-03-02T14:48:00.747Z,49.74
2024-03-02T14:50:29.369Z,50.07
2024-03-02T14:52:59.810Z,50.84
2024-03-02T14:55:29.080Z,51.84
2024-03-02T14:57:57.276Z,50.24
2024-03-02T15:00:25.465Z,51.14
2024-03-02T15:02:53.965Z,50.05
2024-03-02T15:05:23.411Z,51.03
2024-03-02T15:07:51.530Z,50.66
2024-03-02T15:10:19.875Z,50.26
2024-03-02T15:12:48.165Z,50.68
2024-03-02T15:15:17.144Z,50.84
2024-03-02T15:17:45.451Z,50.92
2024-03-02T15:20:13.891Z,51.81
2024-03-02T15:22:43.406Z,49.21
2024-03-02T15:25:11.663Z,51.69
2024-03-02T15:27:41.023Z,50.70
2024-03-02T15:30:10.234Z,50.72
2024-03-02T15:32:39.844Z,51.34
2024-03-02T15:35:08.959Z,50.58
2024-03-02T15:37:37.183Z,50.84
2024-03-02T15:40:09.639Z,51.88
2024-03-02T15:42:38.359Z,52.03
2024-03-02T15:45:08.286Z,51.44
2024-03-02T15:47:37.239Z,51.95
2024-03-02T15:50:06.813Z,52.36
2024-03-02T15:52:35.091Z,52.37
2024-03-02T15:55:06.741Z,52.40
2024-03-02T15:57:37.390Z,52.34
2024-03-02T16:00:07.766Z,52.72
2024-03-02T16:02:35.891Z,53.63
2024-03-02T16:05:04.130Z,52.99
2024-03-02T16:07:33.025Z,52.68
2024-03-02T16:10:04.516Z,52.19
2024-03-02T16:12:32.862Z,52.19
2024-03-02T16:15:02.390Z,53.22
2024-03-02T16:17:30.533Z,52.58
2024-03-02T16:19:59.441Z,52.76
2024-03-02T16:22:27.728Z,53.00
2024-03-02T16:24:55.845Z,53.26
2024-03-02T16:27:23.994Z,53.44
2024-03-02T16:29:52.160Z,54.64
2024-03-02T16:32:21.641Z,54.68
2024-03-02T16:34:49.894Z,55.01
2024-03-02T16:37:18.030Z,55.68
2024-03-02T16:39:46.177Z,55.53
2024-03-02T16:42:16.004Z,55.86
2024-03-02T16:44:44.090Z,56.09
2024-03-02T16:47:13.914Z,56.22
2024-03-02T16:49:46.565Z,56.38
2024-03-02T16:52:15.965Z,57.11
2024-03-02T16:54:44.238Z,57.57
2024-03-02T16:57:13.781Z,57.57
2024-03-02T16:59:42.688Z,58.36
2024-03-02T17:02:11.470Z,58.81
2024-03-02T17:04:40.013Z,59.00
2024-03-02T17:07:09.715Z,59.66
2024-03-02T17:09:37.972Z,59.86
2024-03-02T17:12:06.900Z,59.72
2024-03-02T17:14:35.010Z,59.74
2024-03-02T17:17:03.152Z,60.29
2024-03-02T17:19:31.285Z,59.98
2024-03-02T17:21:59.468Z,60.81
2024-03-02T17:24:28.955Z,60.77
2024-03-02T17:26:59.226Z,60.30
2024-03-02T17:29:27.402Z,60.50
2024-03-02T17:31:56.844Z,60.57
2024-03-02T17:34:25.095Z,61.55
2024-03-02T17:36:53.464Z,61.15
2024-03-02T17:39:21.565Z,60.81
2024-03-02T17:41:52.178Z,61.30
2024-03-02T17:44:20.267Z,61.14
2024-03-02T17:46:48.476Z,61.18
2024-03-02T17:49:20.325Z,61.60
2024-03-02T17:51:48.974Z,60.87
2024-03-02T17:54:17.353Z,61.89
2024-03-02T17:56:45.485Z,61.65
2024-03-02T17:59:15.011Z,62.20
2024-03-02T18:01:43.128Z,61.72
2024-03-02T18:04:11.526Z,62.73
2024-03-02T18:06:39.762Z,62.05
2024-03-02T18:09:08.561Z,63.01
2024-03-02T18:11:36.893Z,63.03
2024-03-02T18:14:04.998Z,63.70
2024-03-02T18:16:34.510Z,63.67
2024-03-02T18:19:05.122Z,63.96
2024-03-02T18:21:34.185Z,65.14
2024-03-02T18:24:02.314Z,65.23
2024-03-02T18:26:30.652Z,65.69
2024-03-02T18:28:58.764Z,66.47
2024-03-02T18:31:26.993Z,67.30
2024-03-02T18:33:56.591Z,67.04
2024-03-02T18:36:24.838Z,67.07
2024-03-02T18:38:53.020Z,66.95
2024-03-02T18:41:21.154Z,69.04
2024-03-02T18:43:49.260Z,69.13
2024-03-02T18:46:17.387Z,70.02
2024-03-02T18:48:45.599Z,69.99
2024-03-02T18:51:15.074Z,70.34
2024-03-02T18:53:44.845Z,71.05
2024-03-02T18:56:13.042Z,70.66
2024-03-02T18:58:41.225Z,70.93
2024-03-02T19:01:10.570Z,72.17
2024-03-02T19:03:38.835Z,71.96
2024-03-02T19:06:08.879Z,71.56
2024-03-02T19:08:38.478Z,71.91
2024-03-02T19:11:06.638Z,72.85
2024-03-02T19:13:34.846Z,73.03
2024-03-02T19:16:03.013Z,72.70
2024-03-02T19:18:31.263Z,72.79
2024-03-02T19:20:59.413Z,72.58
2024-03-02T19:23:32.245Z,73.38
2024-03-02T19:26:06.121Z,73.71
2024-03-02T19:28:34.267Z,73.81
2024-03-02T19:31:03.181Z,74.41
2024-03-02T19:33:31.449Z,74.23
2024-03-02T19:35:59.735Z,73.68
2024-03-02T19:38:28.283Z,73.83
2024-03-02T19:40:56.414Z,74.57
2024-03-02T19:43:25.853Z,74.67
2024-03-02T19:45:54.142Z,74.70
2024-03-02T19:48:22.360Z,74.90
2024-03-02T19:50:51.376Z,74.06
2024-03-02T19:53:19.515Z,74.33
2024-03-02T19:55:47.883Z,74.43
2024-03-02T19:58:16.483Z,73.75
2024-03-02T20:00:46.218Z,74.62
2024-03-02T20:03:15.203Z,73.92
2024-03-02T20:05:43.367Z,73.71
2024-03-02T20:08:11.489Z,73.68
2024-03-02T20:10:39.706Z,74.49
2024-03-02T20:13:08.659Z,74.17
2024-03-02T20:15:37.072Z,74.47
2024-03-02T20:18:07.269Z,74.45
2024-03-02T20:20:35.481Z,74.62
2024-03-02T20:23:03.672Z,75.68
2024-03-02T20:25:31.772Z,75.87
2024-03-02T20:28:00.452Z,76.14
2024-03-02T20:30:28.716Z,76.30
2024-03-02T20:32:56.917Z,77.21
2024-03-02T20:35:26.485Z,77.18
2024-03-02T20:37:54.701Z,77.03
2024-03-02T20:40:22.898Z,77.97
2024-03-02T20:42:51.109Z,77.71
2024-03-02T20:45:19.622Z,77.10
2024-03-02T20:47:47.991Z,77.33
2024-03-02T20:50:16.430Z,77.58
2024-03-02T20:52:46.387Z,77.77
2024-03-02T20:55:14.879Z,78.13
2024-03-02T20:57:43.101Z,78.90
2024-03-02T21:00:12.433Z,78.71
2024-03-02T21:02:40.683Z,78.70
2024-03-02T21:05:10.280Z,79.19
2024-03-02T21:07:39.364Z,78.63
2024-03-02T21:10:10.775Z,79.09
2024-03-02T21:12:39.840Z,79.27
2024-03-02T21:15:09.300Z,79.63
2024-03-02T21:17:37.501Z,80.18
2024-03-02T21:20:09.996Z,80.22
2024-03-02T21:22:39.555Z,80.31
2024-03-02T21:25:12.990Z,81.31
2024-03-02T21:27:41.968Z,81.36
2024-03-02T21:30:11.630Z,81.62
2024-03-02T21:32:39.902Z,81.42
2024-03-02T21:35:09.042Z,82.58
2024-03-02T21:37:37.186Z,82.23
2024-03-02T21:40:08.768Z,82.57
2024-03-02T21:42:37.062Z,82.86
2024-03-02T21:45:06.202Z,82.97
2024-03-02T21:47:34.398Z,83.54
2024-03-02T21:50:02.515Z,83.46
2024-03-02T21:52:30.603Z,83.16
2024-03-02T21:54:58.777Z,84.37
2024-03-02T21:57:28.287Z,84.15
2024-03-02T21:59:56.392Z,84.33
2024-03-02T22:02:24.515Z,84.05
2024-03-02T22:04:52.623Z,84.64
2024-03-02T22:07:20.981Z,84.68
2024-03-02T22:09:49.113Z,84.26
2024-03-02T22:12:17.214Z,84.92
2024-03-02T22:14:46.654Z,84.71
2024-03-02T22:17:14.823Z,85.03
2024-03-02T22:19:42.997Z,85.65
2024-03-02T22:22:11.321Z,85.78
2024-03-02T22:24:39.442Z,86.29
2024-03-02T22:27:07.663Z,87.57
2024-03-02T22:29:35.943Z,88.02
2024-03-02T22:32:06.832Z,88.04
2024-03-02T22:34:35.537Z,88.25
2024-03-02T22:37:03.839Z,88.03
2024-03-02T22:39:32.029Z,88.70
2024-03-02T22:42:00.107Z,88.77
2024-03-02T22:44:28.223Z,88.42
2024-03-02T22:46:56.595Z,88.35
2024-03-02T22:49:26.050Z,87.89
2024-03-02T22:51:54.157Z,88.51
2024-03-02T22:54:22.332Z,88.95
2024-03-02T22:56:50.448Z,88.90
2024-03-02T22:59:18.657Z,89.55
2024-03-02T23:01:46.896Z,89.24
2024-03-02T23:04:15.223Z,89.43
2024-03-02T23:06:44.770Z,89.43
2024-03-02T23:09:13.464Z,89.79
2024-03-02T23:11:41.594Z,89.45
2024-03-02T23:14:10.699Z,89.41
2024-03-02T23:16:45.088Z,89.79
2024-03-02T23:19:15.126Z,89.59
2024-03-02T23:21:44.736Z,90.04
2024-03-02T23:24:12.834Z,89.97
2024-03-02T23:26:41.208Z,90.53
2024-03-02T23:29:09.323Z,90.98
2024-03-02T23:31:37.508Z,90.61
2024-03-02T23:34:06.439Z,90.41
2024-03-02T23:36:35.382Z,90.42
2024-03-02T23:39:05.822Z,90.67
2024-03-02T23:41:34.770Z,90.47
2024-03-02T23:44:03.177Z,90.94
2024-03-02T23:46:31.368Z,90.92
2024-03-02T23:48:59.545Z,90.75
2024-03-02T23:51:27.673Z,90.81
2024-03-02T23:53:55.761Z,90.15
2024-03-02T23:56:25.265Z,90.57
2024-03-02T23:58:53.343Z,89.96
